Time;durP1;ratioP1;P1;durP2;ratioP2;P2;SDS_P1;SDS_P2;PMS_P1;PMS_P2;Temp;Humidity;BMP_temperature;BMP_pressure;BME280_temperature;BME280_humidity;BME280_pressure;Samples;Min_cycle;Max_cycle;Signal;HPM_P1;HPM_P2
2023/10/06 00:00:43;;;;;;;5.18;2.03;;;;;;;;;;4986576;28;20099;-80
2023/10/06 00:03:14;;;;;;;5.32;2.90;;;;;;;;;;4981333;28;20041;-80
2023/10/06 00:05:49;;;;;;;8.57;2.70;;;;;;;;;;4990239;28;20101;-80
2023/10/06 00:08:18;;;;;;;6.75;3.03;;;;;;;;;;4988352;28;20567;-81
2023/10/06 00:10:51;;;;;;;3.63;2.22;;;;;;;;;;4982946;28;20113;-80
2023/10/06 00:13:23;;;;;;;5.65;3.55;;;;;;;;;;4983442;28;20488;-80
2023/10/06 00:15:51;;;;;;;12.85;2.67;;;;;;;;;;4986510;28;20022;-80
2023/10/06 00:18:23;;;;;;;7.03;2.40;;;;;;;;;;4992636;28;20084;-80
2023/10/06 00:20:49;;;;;;;6.63;2.53;;;;;;;;;;4990893;28;20050;-80
2023/10/06 00:23:22;;;;;;;5.05;2.35;;;;;;;;;;4977748;28;20072;-80
2023/10/06 00:25:51;;;;;;;4.53;2.50;;;;;;;;;;4985730;28;20846;-81
2023/10/06 00:28:22;;;;;;;6.47;2.90;;;;;;;;;;4987294;28;20068;-81
2023/10/06 00:30:55;;;;;;;3.63;2.50;;;;;;;;;;4987813;28;20053;-81
2023/10/06 00:33:22;;;;;;;8.43;2.60;;;;;;;;;;4980270;28;20057;-81
2023/10/06 00:35:48;;;;;;;4.00;2.78;;;;;;;;;;4985786;28;20495;-81
2023/10/06 00:38:16;;;;;;;4.00;2.33;;;;;;;;;;4984870;28;20074;-81
2023/10/06 00:40:55;;;;;;;4.57;2.97;;;;;;;;;;4987352;28;20360;-81
2023/10/06 00:43:36;;;;;;;5.10;2.40;;;;;;;;;;4980340;28;20262;-79
2023/10/06 00:46:08;;;;;;;8.02;3.10;;;;;;;;;;4987744;28;20019;-80
2023/10/06 00:48:37;;;;;;;6.88;3.25;;;;;;;;;;4991152;28;20026;-81
2023/10/06 00:51:04;;;;;;;6.43;2.53;;;;;;;;;;4999739;28;20022;-79
2023/10/06 00:53:33;;;;;;;4.45;2.38;;;;;;;;;;5000995;28;20094;-79
2023/10/06 00:56:02;;;;;;;3.03;1.92;;;;;;;;;;5002024;28;20085;-80
2023/10/06 00:58:33;;;;;;;6.95;2.83;;;;;;;;;;5002137;28;20046;-80
2023/10/06 01:00:59;;;;;;;6.60;2.53;;;;;;;;;;4991875;28;20035;-80
2023/10/06 01:03:25;;;;;;;3.92;2.35;;;;;;;;;;4983577;28;20042;-81
2023/10/06 01:05:56;;;;;;;8.75;3.20;;;;;;;;;;4994124;28;20423;-81
2023/10/06 01:08:21;;;;;;;7.78;2.35;;;;;;;;;;4989721;28;20022;-80
2023/10/06 01:10:51;;;;;;;3.35;2.38;;;;;;;;;;4992713;28;20472;-80
2023/10/06 01:13:18;;;;;;;3.33;2.70;;;;;;;;;;4986138;28;20038;-80
2023/10/06 01:15:55;;;;;;;4.43;2.65;;;;;;;;;;4999714;28;20026;-80
2023/10/06 01:18:24;;;;;;;3.95;2.05;;;;;;;;;;4992763;28;20018;-80
2023/10/06 01:20:50;;;;;;;7.25;2.53;;;;;;;;;;4994070;28;20026;-80
2023/10/06 01:23:22;;;;;;;4.07;2.40;;;;;;;;;;4998747;28;20062;-79
2023/10/06 01:25:53;;;;;;;;;;;;;;;;;;5000009;28;20057;-79
2023/10/06 01:28:19;;;;;;;3.80;2.22;;;;;;;;;;5002528;28;20017;-80
2023/10/06 01:30:44;;;;;;;10.43;3.20;;;;;;;;;;5009363;28;20026;-79
2023/10/06 01:36:33;;;;;;;4.35;2.85;;;;;;;;;;5007532;28;20065;-80
2023/10/06 01:39:04;;;;;;;3.72;2.08;;;;;;;;;;5013139;28;20026;-80
2023/10/06 01:41:29;;;;;;;5.93;2.63;;;;;;;;;;4986976;28;20034;-80
2023/10/06 01:43:54;;;;;;;5.63;2.58;;;;;;;;;;4989280;28;20180;-80
2023/10/06 01:46:21;;;;;;;3.38;2.47;;;;;;;;;;4994680;28;20026;-80
2023/10/06 01:48:46;;;;;;;5.40;2.97;;;;;;;;;;4995984;28;20026;-81
2023/10/06 01:51:15;;;;;;;7.70;3.13;;;;;;;;;;4997099;28;20217;-81
2023/10/06 01:53:41;;;;;;;5.25;2.70;;;;;;;;;;4996348;28;20141;-81
2023/10/06 01:56:07;;;;;;;6.28;3.00;;;;;;;;;;4984250;28;20025;-80
2023/10/06 01:58:33;;;;;;;6.75;3.38;;;;;;;;;;5002131;28;20031;-80
2023/10/06 02:00:59;;;;;;;6.90;2.90;;;;;;;;;;4994867;28;20050;-81
2023/10/06 02:03:24;;;;;;;3.60;2.53;;;;;;;;;;4990028;28;20042;-80
2023/10/06 02:05:59;;;;;;;8.32;2.97;;;;;;;;;;4998505;28;20026;-80
2023/10/06 02:08:26;;;;;;;6.18;3.00;;;;;;;;;;4998383;28;20026;-80
2023/10/06 02:10:51;;;;;;;8.23;3.35;;;;;;;;;;4996798;28;20027;-80
2023/10/06 02:13:21;;;;;;;3.33;2.38;;;;;;;;;;4990412;28;20403;-80
2023/10/06 02:15:56;;;;;;;6.15;2.75;;;;;;;;;;4988833;28;20089;-81
2023/10/06 02:18:22;;;;;;;7.10;2.53;;;;;;;;;;5006902;28;20025;-80
2023/10/06 02:20:47;;;;;;;4.55;2.75;;;;;;;;;;4993056;28;20034;-80
2023/10/06 02:23:13;;;;;;;5.18;2.60;;;;;;;;;;4992558;28;20042;-80
2023/10/06 02:25:39;;;;;;;4.57;3.25;;;;;;;;;;4994464;28;20030;-80
2023/10/06 02:28:05;;;;;;;7.95;2.92;;;;;;;;;;4996829;28;20044;-81
2023/10/06 02:30:33;;;;;;;6.07;3.33;;;;;;;;;;4995972;28;20052;-80
2023/10/06 02:33:03;;;;;;;4.57;2.78;;;;;;;;;;4992907;28;20030;-81
2023/10/06 02:35:28;;;;;;;9.02;2.80;;;;;;;;;;4997055;28;20543;-81
2023/10/06 02:37:57;;;;;;;6.72;2.97;;;;;;;;;;4994154;28;20026;-81
2023/10/06 02:40:31;;;;;;;5.80;3.38;;;;;;;;;;4996559;28;20040;-81
2023/10/06 02:42:57;;;;;;;4.80;2.83;;;;;;;;;;4988058;28;20452;-81
2023/10/06 02:45:30;;;;;;;10.45;3.15;;;;;;;;;;4995113;28;20023;-81
2023/10/06 02:47:58;;;;;;;3.85;2.63;;;;;;;;;;4992141;28;20065;-81
2023/10/06 02:50:23;;;;;;;7.32;2.90;;;;;;;;;;4993643;28;20038;-81
2023/10/06 02:52:53;;;;;;;3.13;2.38;;;;;;;;;;4979703;28;20111;-81
2023/10/06 02:55:31;;;;;;;4.47;2.63;;;;;;;;;;4996946;28;20045;-82
2023/10/06 02:57:57;;;;;;;3.30;2.20;;;;;;;;;;5005752;28;20053;-81
2023/10/06 03:02:57;;;;;;;3.20;2.50;;;;;;;;;;4991451;28;20601;-81
2023/10/06 03:05:33;;;;;;;3.97;2.65;;;;;;;;;;4991747;28;20123;-81
2023/10/06 03:08:08;;;;;;;5.68;3.15;;;;;;;;;;5002273;28;20021;-82
2023/10/06 03:10:42;;;;;;;9.00;3.55;;;;;;;;;;5000484;28;20116;-81
2023/10/06 03:13:08;;;;;;;8.68;3.10;;;;;;;;;;4989000;28;20118;-81
2023/10/06 03:15:43;;;;;;;3.53;2.55;;;;;;;;;;5001595;28;20030;-82
2023/10/06 03:18:12;;;;;;;6.45;3.28;;;;;;;;;;5011191;28;20053;-81
2023/10/06 03:20:46;;;;;;;7.10;3.42;;;;;;;;;;5008098;28;20032;-80
2023/10/06 03:23:26;;;;;;;5.97;3.42;;;;;;;;;;4990757;28;20030;-81
2023/10/06 03:25:56;;;;;;;6.18;3.47;;;;;;;;;;4994279;28;20030;-81
2023/10/06 03:28:31;;;;;;;8.50;3.72;;;;;;;;;;4988948;28;20076;-81
2023/10/06 03:30:58;;;;;;;8.85;3.47;;;;;;;;;;4986008;28;20461;-81
2023/10/06 03:33:24;;;;;;;5.18;3.63;;;;;;;;;;4987625;28;20026;-80
2023/10/06 03:35:49;;;;;;;6.72;3.22;;;;;;;;;;4988825;28;20514;-80
2023/10/06 03:40:46;;;;;;;7.50;3.60;;;;;;;;;;4987731;28;20085;-80
2023/10/06 03:43:16;;;;;;;6.63;3.58;;;;;;;;;;4985374;28;20038;-80
2023/10/06 03:45:43;;;;;;;6.20;3.83;;;;;;;;;;4989335;28;20026;-81
2023/10/06 03:48:12;;;;;;;8.13;3.60;;;;;;;;;;4998272;28;20026;-80
2023/10/06 03:50:39;;;;;;;13.15;3.67;;;;;;;;;;5002496;28;20034;-80
2023/10/06 03:53:08;;;;;;;5.20;3.40;;;;;;;;;;4997309;28;20029;-80
2023/10/06 03:55:39;;;;;;;6.18;3.47;;;;;;;;;;4996620;28;20057;-80
2023/10/06 03:58:08;;;;;;;8.18;3.97;;;;;;;;;;5001211;28;20026;-80
2023/10/06 04:00:41;;;;;;;6.85;3.80;;;;;;;;;;5004177;28;20617;-80
2023/10/06 04:03:14;;;;;;;9.48;3.63;;;;;;;;;;4997494;28;20030;-81
2023/10/06 04:05:48;;;;;;;5.32;3.65;;;;;;;;;;4992291;28;20488;-82
2023/10/06 04:08:15;;;;;;;8.60;3.90;;;;;;;;;;4990432;28;20653;-81
2023/10/06 04:10:42;;;;;;;4.63;3.30;;;;;;;;;;4990562;28;20033;-82
2023/10/06 04:13:08;;;;;;;5.65;3.45;;;;;;;;;;4982763;28;20599;-82
2023/10/06 04:15:38;;;;;;;8.75;4.82;;;;;;;;;;4987891;28;20053;-82
2023/10/06 04:18:10;;;;;;;7.35;3.40;;;;;;;;;;4988267;28;20034;-81
2023/10/06 04:20:39;;;;;;;;;;;;;;;;;;4988140;28;20052;-80
2023/10/06 04:23:06;;;;;;;7.22;3.28;;;;;;;;;;4993725;28;19944;-80
2023/10/06 04:25:37;;;;;;;8.13;3.53;;;;;;;;;;4998672;28;20069;-80
2023/10/06 04:28:16;;;;;;;6.30;4.03;;;;;;;;;;4999647;28;20041;-80
2023/10/06 04:30:45;;;;;;;5.35;3.70;;;;;;;;;;5000085;28;20645;-80
2023/10/06 04:33:13;;;;;;;6.20;3.50;;;;;;;;;;4997174;28;20044;-80
2023/10/06 04:35:40;;;;;;;7.00;3.15;;;;;;;;;;4998274;28;21374;-80
2023/10/06 04:38:12;;;;;;;5.38;3.47;;;;;;;;;;4997023;28;20026;-80
2023/10/06 04:40:38;;;;;;;7.03;4.05;;;;;;;;;;4993138;28;20036;-82
2023/10/06 04:43:04;;;;;;;5.38;3.47;;;;;;;;;;4983455;28;20393;-82
2023/10/06 04:45:32;;;;;;;7.97;4.00;;;;;;;;;;4998339;28;20058;-82
2023/10/06 04:48:00;;;;;;;8.48;3.60;;;;;;;;;;4993663;28;20022;-82
2023/10/06 04:50:29;;;;;;;5.40;3.85;;;;;;;;;;4991930;28;20560;-82
2023/10/06 04:52:55;;;;;;;8.95;4.28;;;;;;;;;;4987100;28;20038;-83
2023/10/06 04:55:21;;;;;;;6.85;3.80;;;;;;;;;;4991983;28;20030;-82
2023/10/06 04:57:47;;;;;;;6.90;4.00;;;;;;;;;;4991301;28;20025;-83
2023/10/06 05:00:14;;;;;;;15.55;4.15;;;;;;;;;;4989604;28;20034;-82
2023/10/06 05:02:43;;;;;;;5.35;4.10;;;;;;;;;;4986294;28;20249;-82
2023/10/06 05:05:12;;;;;;;5.90;3.28;;;;;;;;;;4987962;28;20102;-82
2023/10/06 05:07:38;;;;;;;8.60;3.90;;;;;;;;;;4990132;28;20148;-82
2023/10/06 05:10:08;;;;;;;12.45;4.95;;;;;;;;;;4988183;28;20113;-81
2023/10/06 05:12:34;;;;;;;5.82;3.60;;;;;;;;;;4987416;28;20073;-81
2023/10/06 05:15:00;;;;;;;11.15;4.07;;;;;;;;;;4987906;28;20049;-81
2023/10/06 05:17:28;;;;;;;5.18;3.85;;;;;;;;;;4989430;28;20493;-81
2023/10/06 05:19:54;;;;;;;9.05;4.32;;;;;;;;;;4989309;28;20452;-81
2023/10/06 05:22:21;;;;;;;6.65;4.03;;;;;;;;;;4986230;28;20033;-81
2023/10/06 05:24:47;;;;;;;7.75;4.05;;;;;;;;;;4986994;28;20026;-81
2023/10/06 05:27:13;;;;;;;10.57;4.25;;;;;;;;;;4981755;28;20544;-82
2023/10/06 05:29:38;;;;;;;11.30;4.63;;;;;;;;;;4987669;28;20072;-81
2023/10/06 05:32:04;;;;;;;9.38;4.28;;;;;;;;;;4985741;28;20026;-81
2023/10/06 05:34:30;;;;;;;9.38;4.32;;;;;;;;;;4985322;28;20044;-81
2023/10/06 05:36:56;;;;;;;9.73;4.97;;;;;;;;;;4988311;28;20117;-82
2023/10/06 05:39:21;;;;;;;6.72;3.95;;;;;;;;;;4988658;28;20464;-81
2023/10/06 05:41:47;;;;;;;6.88;4.60;;;;;;;;;;4983925;28;20030;-81
2023/10/06 05:44:13;;;;;;;8.93;4.32;;;;;;;;;;4984756;28;20034;-81
2023/10/06 05:46:41;;;;;;;9.35;4.13;;;;;;;;;;4987538;28;20034;-81
2023/10/06 05:49:08;;;;;;;8.60;4.30;;;;;;;;;;4988349;28;20038;-82
2023/10/06 05:51:38;;;;;;;8.15;4.07;;;;;;;;;;4984951;28;20105;-81
2023/10/06 05:54:09;;;;;;;8.60;4.43;;;;;;;;;;4984018;28;20041;-81
2023/10/06 05:56:37;;;;;;;6.47;3.85;;;;;;;;;;4983424;28;20026;-81
2023/10/06 05:59:02;;;;;;;12.85;4.43;;;;;;;;;;4984890;28;20029;-82
2023/10/06 06:01:32;;;;;;;11.07;4.88;;;;;;;;;;4983260;28;20030;-82
2023/10/06 06:03:57;;;;;;;6.05;3.30;;;;;;;;;;4983489;28;20027;-82
2023/10/06 06:06:24;;;;;;;11.35;4.22;;;;;;;;;;4984250;28;20030;-81
2023/10/06 06:08:51;;;;;;;11.85;5.03;;;;;;;;;;4985713;28;20065;-81
2023/10/06 06:11:17;;;;;;;7.07;3.80;;;;;;;;;;4985302;28;20027;-81
2023/10/06 06:13:42;;;;;;;9.18;4.55;;;;;;;;;;4982990;28;20041;-82
2023/10/06 06:16:07;;;;;;;7.53;4.10;;;;;;;;;;4984988;28;20664;-82
2023/10/06 06:18:42;;;;;;;6.28;4.35;;;;;;;;;;4984923;28;20562;-82
2023/10/06 06:21:09;;;;;;;7.93;4.35;;;;;;;;;;4982484;28;20034;-80
2023/10/06 06:23:35;;;;;;;5.97;4.07;;;;;;;;;;4982996;28;20112;-81
2023/10/06 06:26:01;;;;;;;8.48;4.85;;;;;;;;;;4989271;28;20164;-79
2023/10/06 06:28:46;;;;;;;8.38;4.22;;;;;;;;;;4991237;28;20026;-82
2023/10/06 06:31:18;;;;;;;9.27;3.85;;;;;;;;;;5007172;28;20030;-82
2023/10/06 06:33:43;;;;;;;;;;;;;;;;;;4995615;28;20033;-82
2023/10/06 06:36:33;;;;;;;39.88;13.45;;;;;;;;;;4996803;28;19914;-82
2023/10/06 06:38:59;;;;;;;22.25;9.43;;;;;;;;;;5012844;28;20090;-82
2023/10/06 06:41:25;;;;;;;15.88;6.75;;;;;;;;;;5008572;28;20389;-82
2023/10/06 06:43:57;;;;;;;9.32;4.65;;;;;;;;;;4986897;28;20116;-82
2023/10/06 06:46:23;;;;;;;7.68;5.20;;;;;;;;;;4988600;28;20489;-82
2023/10/06 06:48:49;;;;;;;7.00;4.20;;;;;;;;;;4995600;28;20122;-82
2023/10/06 06:51:14;;;;;;;6.30;3.35;;;;;;;;;;4994891;28;20105;-82
2023/10/06 06:53:39;;;;;;;11.50;3.95;;;;;;;;;;4992632;28;20026;-82
2023/10/06 06:56:05;;;;;;;8.23;3.83;;;;;;;;;;4989433;28;20031;-82
2023/10/06 06:58:32;;;;;;;7.60;4.05;;;;;;;;;;5002497;28;20029;-82
2023/10/06 07:00:58;;;;;;;8.57;4.13;;;;;;;;;;4993270;28;20027;-82
2023/10/06 07:03:24;;;;;;;11.52;4.15;;;;;;;;;;4985915;28;20057;-82
2023/10/06 07:05:50;;;;;;;8.68;4.28;;;;;;;;;;4996983;28;20082;-82
2023/10/06 07:08:15;;;;;;;7.97;3.63;;;;;;;;;;4992516;28;20105;-81
2023/10/06 07:10:46;;;;;;;7.88;3.90;;;;;;;;;;4994753;28;20136;-81
2023/10/06 07:13:12;;;;;;;7.10;3.30;;;;;;;;;;4988436;28;20113;-81
2023/10/06 07:15:37;;;;;;;13.25;4.38;;;;;;;;;;5003109;28;20030;-82
2023/10/06 07:18:03;;;;;;;9.82;4.20;;;;;;;;;;4991604;28;20490;-81
2023/10/06 07:20:30;;;;;;;7.60;3.83;;;;;;;;;;4996537;28;20173;-81
2023/10/06 07:22:57;;;;;;;6.43;3.47;;;;;;;;;;4996039;28;20292;-81
2023/10/06 07:25:24;;;;;;;6.78;3.80;;;;;;;;;;4987340;28;20026;-81
2023/10/06 07:27:52;;;;;;;7.15;3.63;;;;;;;;;;4990044;28;20027;-82
2023/10/06 07:30:22;;;;;;;7.95;4.05;;;;;;;;;;4992356;28;20038;-82
2023/10/06 07:32:48;;;;;;;6.75;3.25;;;;;;;;;;4989833;28;20050;-82
2023/10/06 07:35:15;;;;;;;8.80;3.65;;;;;;;;;;4990384;28;20433;-81
2023/10/06 07:37:44;;;;;;;9.63;4.07;;;;;;;;;;4990256;28;20033;-81
2023/10/06 07:40:13;;;;;;;10.27;4.05;;;;;;;;;;4991225;28;20030;-81
2023/10/06 07:42:42;;;;;;;7.88;4.05;;;;;;;;;;4990202;28;20105;-81
2023/10/06 07:45:08;;;;;;;10.95;4.28;;;;;;;;;;4991537;28;20535;-81
2023/10/06 07:47:36;;;;;;;7.43;3.47;;;;;;;;;;4991937;28;20058;-82
2023/10/06 07:50:02;;;;;;;7.85;3.67;;;;;;;;;;4995580;28;20104;-81
2023/10/06 07:52:27;;;;;;;7.57;3.22;;;;;;;;;;4984891;28;20485;-81
2023/10/06 07:54:53;;;;;;;10.13;3.80;;;;;;;;;;4996109;28;20041;-81
2023/10/06 07:57:18;;;;;;;7.72;3.95;;;;;;;;;;4994839;28;20022;-81
2023/10/06 07:59:44;;;;;;;6.05;3.28;;;;;;;;;;4999692;28;20058;-81
2023/10/06 08:02:10;;;;;;;8.10;3.40;;;;;;;;;;4994514;28;20026;-82
2023/10/06 08:04:35;;;;;;;5.78;3.55;;;;;;;;;;4995552;28;20110;-82
2023/10/06 08:07:01;;;;;;;6.63;4.07;;;;;;;;;;4997327;28;20082;-81
2023/10/06 08:09:26;;;;;;;10.13;4.07;;;;;;;;;;4993657;28;20054;-81
2023/10/06 08:11:54;;;;;;;12.05;3.78;;;;;;;;;;4985627;28;20048;-81
2023/10/06 08:14:20;;;;;;;7.57;3.65;;;;;;;;;;4987876;28;20081;-81
2023/10/06 08:16:49;;;;;;;5.78;3.35;;;;;;;;;;4989444;28;20034;-81
2023/10/06 08:19:15;;;;;;;6.13;3.25;;;;;;;;;;4989031;28;20065;-81
2023/10/06 08:21:41;;;;;;;9.52;3.45;;;;;;;;;;4987510;28;20061;-81
2023/10/06 08:24:07;;;;;;;7.03;3.22;;;;;;;;;;4981815;28;20503;-81
2023/10/06 08:26:33;;;;;;;8.77;3.00;;;;;;;;;;4990646;28;20038;-81
2023/10/06 08:28:59;;;;;;;9.98;3.20;;;;;;;;;;4995053;28;20034;-81
2023/10/06 08:31:26;;;;;;;10.20;3.90;;;;;;;;;;4993725;28;20651;-81
2023/10/06 08:33:51;;;;;;;9.07;3.40;;;;;;;;;;4985427;28;20030;-81
2023/10/06 08:36:17;;;;;;;8.75;3.17;;;;;;;;;;4999530;28;20545;-83
2023/10/06 08:38:46;;;;;;;5.85;3.13;;;;;;;;;;4991360;28;20033;-82
2023/10/06 08:41:11;;;;;;;6.00;3.30;;;;;;;;;;4992377;28;20055;-82
2023/10/06 08:43:38;;;;;;;6.63;3.40;;;;;;;;;;4984655;28;20027;-81
2023/10/06 08:46:05;;;;;;;7.22;3.53;;;;;;;;;;4994085;28;20033;-82
2023/10/06 08:48:31;;;;;;;6.07;3.38;;;;;;;;;;4991915;28;20080;-82
2023/10/06 08:50:59;;;;;;;10.25;3.50;;;;;;;;;;4997372;28;20096;-82
2023/10/06 08:53:30;;;;;;;6.80;3.10;;;;;;;;;;4988256;28;20030;-82
2023/10/06 08:55:57;;;;;;;5.68;3.15;;;;;;;;;;4987203;28;20056;-82
2023/10/06 08:58:26;;;;;;;8.38;3.17;;;;;;;;;;4986293;28;20279;-82
2023/10/06 09:00:52;;;;;;;6.25;2.92;;;;;;;;;;4999099;28;20026;-81
2023/10/06 09:03:20;;;;;;;5.90;3.00;;;;;;;;;;5001638;28;20061;-82
2023/10/06 09:05:46;;;;;;;9.95;3.05;;;;;;;;;;5001771;28;20026;-82
2023/10/06 09:08:15;;;;;;;7.15;3.10;;;;;;;;;;4992756;28;20026;-84
2023/10/06 09:10:48;;;;;;;6.78;3.35;;;;;;;;;;5001912;28;20031;-82
2023/10/06 09:13:17;;;;;;;6.88;2.97;;;;;;;;;;4985570;28;20485;-83
2023/10/06 09:19:00;;;;;;;5.20;3.17;;;;;;;;;;4994463;28;20480;-83
2023/10/06 09:21:26;;;;;;;8.20;3.17;;;;;;;;;;4991150;28;20043;-83
2023/10/06 09:23:52;;;;;;;6.70;3.22;;;;;;;;;;4988657;28;20026;-83
2023/10/06 09:26:29;;;;;;;11.55;3.72;;;;;;;;;;4993901;28;20069;-83
2023/10/06 09:28:55;;;;;;;6.20;3.47;;;;;;;;;;4988410;28;20018;-82
2023/10/06 09:31:44;;;;;;;6.30;3.40;;;;;;;;;;4991638;28;20034;-82
2023/10/06 09:34:11;;;;;;;7.15;3.42;;;;;;;;;;4991764;28;20117;-82
2023/10/06 09:36:38;;;;;;;6.55;3.42;;;;;;;;;;4996450;28;20034;-82
2023/10/06 09:39:05;;;;;;;5.32;3.33;;;;;;;;;;5001689;28;20447;-82
2023/10/06 09:41:32;;;;;;;8.40;2.97;;;;;;;;;;4997544;28;20519;-83
2023/10/06 09:44:11;;;;;;;6.57;3.25;;;;;;;;;;4998352;28;20010;-83
2023/10/06 09:46:41;;;;;;;7.22;3.38;;;;;;;;;;5007132;28;20117;-82
2023/10/06 09:49:07;;;;;;;7.25;3.05;;;;;;;;;;5000538;28;20112;-82
2023/10/06 09:51:36;;;;;;;7.43;2.88;;;;;;;;;;4989060;28;20027;-82
2023/10/06 09:54:04;;;;;;;8.02;3.22;;;;;;;;;;4985094;28;20509;-82
2023/10/06 09:56:31;;;;;;;7.53;3.47;;;;;;;;;;4993305;28;20105;-82
2023/10/06 09:58:57;;;;;;;7.63;2.90;;;;;;;;;;4998882;28;20081;-82
2023/10/06 10:01:28;;;;;;;8.95;3.50;;;;;;;;;;4997288;28;20061;-83
2023/10/06 10:03:56;;;;;;;5.07;2.90;;;;;;;;;;4994318;28;20821;-82
2023/10/06 10:06:22;;;;;;;7.85;3.03;;;;;;;;;;4993441;28;20385;-82
2023/10/06 10:08:48;;;;;;;4.93;3.08;;;;;;;;;;4997414;28;20264;-82
2023/10/06 10:11:20;;;;;;;12.00;3.90;;;;;;;;;;4998344;28;20034;-81
2023/10/06 10:13:57;;;;;;;7.43;3.08;;;;;;;;;;4995739;28;20278;-82
2023/10/06 10:16:48;;;;;;;5.32;2.88;;;;;;;;;;4992547;28;20065;-82
2023/10/06 10:19:18;;;;;;;5.97;2.78;;;;;;;;;;4993792;28;20481;-82
2023/10/06 10:21:44;;;;;;;5.22;2.83;;;;;;;;;;5009472;28;20022;-82
2023/10/06 10:24:13;;;;;;;6.80;2.80;;;;;;;;;;4995752;28;20397;-82
2023/10/06 10:26:39;;;;;;;10.75;2.95;;;;;;;;;;5001023;28;20064;-82
2023/10/06 10:29:16;;;;;;;6.28;2.75;;;;;;;;;;5008547;28;20029;-82
2023/10/06 10:31:54;;;;;;;5.18;2.80;;;;;;;;;;5000269;28;20101;-82
2023/10/06 10:34:25;;;;;;;7.13;3.25;;;;;;;;;;4986596;28;20139;-82
2023/10/06 10:36:53;;;;;;;7.43;2.83;;;;;;;;;;4994432;28;20065;-81
2023/10/06 10:39:42;;;;;;;7.53;3.38;;;;;;;;;;5006747;28;20045;-82
2023/10/06 10:42:33;;;;;;;6.30;2.60;;;;;;;;;;4990420;23;20137;-85
2023/10/06 10:45:50;;;;;;;6.38;3.10;;;;;;;;;;4960703;28;20043;-86
2023/10/06 10:48:17;;;;;;;7.70;2.90;;;;;;;;;;4963250;28;20034;-86
2023/10/06 10:51:10;;;;;;;7.40;3.30;;;;;;;;;;4965192;28;20035;-86
2023/10/06 10:53:41;;;;;;;5.07;2.72;;;;;;;;;;4954314;28;20110;-86
2023/10/06 10:56:26;;;;;;;6.95;2.97;;;;;;;;;;4958971;29;20027;-86
2023/10/06 10:58:53;;;;;;;4.90;2.70;;;;;;;;;;4964690;29;20031;-87
2023/10/06 11:01:45;;;;;;;8.50;3.00;;;;;;;;;;4962681;28;20042;-87
2023/10/06 11:04:29;;;;;;;4.65;2.55;;;;;;;;;;4958819;28;20433;-87
2023/10/06 11:06:58;;;;;;;3.95;2.30;;;;;;;;;;4964525;28;20035;-87
2023/10/06 11:09:36;;;;;;;10.65;2.70;;;;;;;;;;4959570;28;20023;-86
2023/10/06 11:12:08;;;;;;;7.38;3.08;;;;;;;;;;4958297;29;20082;-87
2023/10/06 11:14:43;;;;;;;7.28;3.17;;;;;;;;;;4959425;28;20043;-87
2023/10/06 11:17:11;;;;;;;6.65;3.08;;;;;;;;;;4967369;28;20038;-86
2023/10/06 11:19:38;;;;;;;5.47;2.88;;;;;;;;;;4955051;28;20454;-86
2023/10/06 11:22:19;;;;;;;5.60;2.95;;;;;;;;;;4954969;28;20031;-87
2023/10/06 11:24:50;;;;;;;9.70;4.13;;;;;;;;;;4950732;28;20486;-86
2023/10/06 11:27:28;;;;;;;9.65;3.45;;;;;;;;;;4965987;28;20027;-87
2023/10/06 11:29:57;;;;;;;5.78;3.08;;;;;;;;;;4945305;28;20093;-86
2023/10/06 11:32:23;;;;;;;5.60;2.83;;;;;;;;;;4953006;28;20450;-87
2023/10/06 11:34:50;;;;;;;10.65;3.15;;;;;;;;;;4955947;28;20049;-86
2023/10/06 11:37:18;;;;;;;6.75;2.85;;;;;;;;;;4952786;28;20258;-86
2023/10/06 11:39:45;;;;;;;5.82;2.80;;;;;;;;;;4953585;28;20019;-86
2023/10/06 11:42:26;;;;;;;6.93;3.05;;;;;;;;;;4953364;28;20042;-87
2023/10/06 11:44:52;;;;;;;7.57;3.17;;;;;;;;;;4953229;28;20061;-86
2023/10/06 11:47:27;;;;;;;10.30;3.03;;;;;;;;;;4953666;28;20031;-86
2023/10/06 11:49:56;;;;;;;7.75;3.15;;;;;;;;;;4953952;28;20015;-86
2023/10/06 11:52:25;;;;;;;7.88;3.10;;;;;;;;;;4952775;28;20027;-85
2023/10/06 11:54:56;;;;;;;9.18;3.28;;;;;;;;;;4956960;28;20460;-86
2023/10/06 11:57:45;;;;;;;8.45;3.15;;;;;;;;;;4953462;28;20029;-86
2023/10/06 12:00:12;;;;;;;6.45;3.22;;;;;;;;;;4947860;28;20027;-87
2023/10/06 12:02:51;;;;;;;6.55;3.20;;;;;;;;;;4954652;28;20041;-86
2023/10/06 12:05:18;;;;;;;6.55;3.60;;;;;;;;;;4956827;28;20114;-86
2023/10/06 12:07:47;;;;;;;6.72;3.05;;;;;;;;;;4950200;28;20027;-86
2023/10/06 12:10:20;;;;;;;7.78;3.05;;;;;;;;;;4951945;28;20038;-86
2023/10/06 12:12:47;;;;;;;7.18;3.05;;;;;;;;;;4953511;28;20104;-86
2023/10/06 12:15:14;;;;;;;9.60;3.03;;;;;;;;;;4953407;28;20039;-86
2023/10/06 12:17:40;;;;;;;8.63;3.40;;;;;;;;;;4949046;28;20030;-86
2023/10/06 12:20:16;;;;;;;5.60;2.80;;;;;;;;;;4951704;28;20031;-86
2023/10/06 12:22:45;;;;;;;8.57;2.90;;;;;;;;;;4953485;28;20037;-86
2023/10/06 12:25:12;;;;;;;7.55;3.47;;;;;;;;;;4958838;28;20631;-87
2023/10/06 12:27:43;;;;;;;6.35;3.20;;;;;;;;;;4959230;28;20108;-87
2023/10/06 12:30:15;;;;;;;8.50;3.28;;;;;;;;;;4954387;28;20090;-86
2023/10/06 12:32:45;;;;;;;7.25;3.03;;;;;;;;;;4953709;28;20126;-86
2023/10/06 12:35:28;;;;;;;5.82;2.67;;;;;;;;;;4951995;29;20027;-87
2023/10/06 12:37:54;;;;;;;5.15;2.90;;;;;;;;;;4953194;28;20047;-87
2023/10/06 12:40:20;;;;;;;7.70;2.70;;;;;;;;;;4953943;28;20051;-87
2023/10/06 12:42:46;;;;;;;6.80;3.08;;;;;;;;;;4949670;28;20043;-86
2023/10/06 12:45:17;;;;;;;6.68;3.10;;;;;;;;;;4945126;28;20023;-86
2023/10/06 12:47:45;;;;;;;10.07;3.07;;;;;;;;;;4947943;29;20031;-86
2023/10/06 12:50:13;;;;;;;6.07;2.83;;;;;;;;;;4946026;28;20297;-86
2023/10/06 12:52:39;;;;;;;6.05;2.75;;;;;;;;;;4950521;28;20315;-86
2023/10/06 12:55:10;;;;;;;9.57;3.55;;;;;;;;;;4954869;28;20034;-86
2023/10/06 12:57:38;;;;;;;5.32;3.00;;;;;;;;;;4952949;29;20091;-86
2023/10/06 13:00:09;;;;;;;8.93;3.17;;;;;;;;;;4952332;28;20039;-86
2023/10/06 13:02:35;;;;;;;6.25;2.65;;;;;;;;;;4945678;28;20051;-86
2023/10/06 13:05:13;;;;;;;6.38;2.65;;;;;;;;;;4952689;28;20656;-86
2023/10/06 13:07:46;;;;;;;12.70;2.75;;;;;;;;;;4953133;28;20090;-87
2023/10/06 13:10:13;;;;;;;4.93;2.40;;;;;;;;;;4953049;28;20047;-86
2023/10/06 13:12:39;;;;;;;5.95;3.20;;;;;;;;;;4962406;28;20045;-87
2023/10/06 13:15:09;;;;;;;6.75;2.90;;;;;;;;;;4957333;28;20367;-86
2023/10/06 13:17:41;;;;;;;7.15;3.33;;;;;;;;;;4954873;28;20031;-88
2023/10/06 13:20:13;;;;;;;9.00;3.40;;;;;;;;;;4947979;28;20027;-86
2023/10/06 13:22:40;;;;;;;;;;;;;;;;;;4961901;28;20031;-86
2023/10/06 13:25:07;;;;;;;7.13;3.15;;;;;;;;;;4948576;28;19920;-87
2023/10/06 13:27:33;;;;;;;7.63;2.53;;;;;;;;;;4944976;28;20023;-86
2023/10/06 13:29:59;;;;;;;6.00;2.97;;;;;;;;;;4947093;28;20037;-86
2023/10/06 13:32:24;;;;;;;5.38;2.60;;;;;;;;;;4965019;28;20022;-86
2023/10/06 13:34:50;;;;;;;9.60;3.05;;;;;;;;;;4957167;28;20494;-86
2023/10/06 13:37:15;;;;;;;8.35;3.00;;;;;;;;;;4947465;28;20058;-86
2023/10/06 13:39:44;;;;;;;5.28;2.72;;;;;;;;;;4949298;28;20038;-86
2023/10/06 13:42:15;;;;;;;9.85;3.53;;;;;;;;;;4949761;28;20487;-86
2023/10/06 13:44:44;;;;;;;8.65;3.10;;;;;;;;;;4956623;28;20487;-85
2023/10/06 13:47:10;;;;;;;5.75;3.03;;;;;;;;;;4953395;29;20027;-89
2023/10/06 13:49:38;;;;;;;11.00;2.92;;;;;;;;;;4956180;28;20570;-86
2023/10/06 13:52:03;;;;;;;8.60;3.03;;;;;;;;;;4955602;28;20035;-86
2023/10/06 13:54:29;;;;;;;7.18;3.30;;;;;;;;;;4952237;28;20098;-87
2023/10/06 13:56:57;;;;;;;5.05;2.70;;;;;;;;;;4955082;28;20118;-87
2023/10/06 13:59:23;;;;;;;7.70;2.85;;;;;;;;;;4956323;28;20037;-86
2023/10/06 14:01:52;;;;;;;9.95;3.22;;;;;;;;;;4954623;28;20043;-86
2023/10/06 14:04:20;;;;;;;5.88;2.97;;;;;;;;;;4960967;28;20098;-86
2023/10/06 14:06:48;;;;;;;9.63;3.40;;;;;;;;;;4960239;28;20019;-86
2023/10/06 14:09:23;;;;;;;8.35;3.50;;;;;;;;;;4951043;28;20490;-86
2023/10/06 14:11:53;;;;;;;5.82;2.50;;;;;;;;;;4955747;28;20499;-86
2023/10/06 14:14:54;;;;;;;6.53;2.80;;;;;;;;;;4955437;28;20114;-86
2023/10/06 14:17:16;;;;;;;5.15;2.70;;;;;;;;;;4955325;28;20035;-85
2023/10/06 14:19:43;;;;;;;6.18;2.35;;;;;;;;;;4954406;28;20105;-87
2023/10/06 14:22:09;;;;;;;5.72;2.20;;;;;;;;;;4961503;28;20070;-86
2023/10/06 14:24:39;;;;;;;5.75;3.00;;;;;;;;;;4952690;28;20035;-86
2023/10/06 14:27:06;;;;;;;9.35;2.58;;;;;;;;;;4958506;28;20398;-86
2023/10/06 14:29:31;;;;;;;7.03;3.00;;;;;;;;;;4974539;28;20030;-86
2023/10/06 14:32:17;;;;;;;3.83;2.08;;;;;;;;;;4958803;28;20023;-86
2023/10/06 14:35:12;;;;;;;6.65;2.72;;;;;;;;;;4954416;28;20117;-86
2023/10/06 14:37:52;;;;;;;6.35;2.50;;;;;;;;;;4958137;28;20154;-86
2023/10/06 14:45:59;;;;;;;6.32;2.28;;;;;;;;;;4965813;28;20046;-83
2023/10/06 14:48:27;;;;;;;5.90;2.47;;;;;;;;;;4967647;28;20019;-84
2023/10/06 14:51:00;;;;;;;4.80;1.90;;;;;;;;;;4970026;28;20600;-83
2023/10/06 14:53:26;;;;;;;3.60;2.25;;;;;;;;;;4968496;28;20045;-84
2023/10/06 14:55:56;;;;;;;5.85;2.50;;;;;;;;;;4978629;28;20032;-81
2023/10/06 14:58:21;;;;;;;4.10;1.88;;;;;;;;;;4995026;28;20617;-83
2023/10/06 15:00:47;;;;;;;4.90;2.00;;;;;;;;;;4976604;28;20035;-83
2023/10/06 15:03:17;;;;;;;9.82;3.08;;;;;;;;;;4965488;28;20031;-83
2023/10/06 15:05:42;;;;;;;5.68;2.20;;;;;;;;;;4965342;28;20427;-82
2023/10/06 15:08:12;;;;;;;6.07;2.47;;;;;;;;;;4978948;28;20512;-82
2023/10/06 15:10:40;;;;;;;4.68;2.25;;;;;;;;;;4957480;28;20031;-82
2023/10/06 15:13:06;;;;;;;3.38;2.00;;;;;;;;;;4976762;28;20207;-82